createdAt,value
2023-01-22T00:00:01.873Z,4.82
2023-01-22T00:05:04.833Z,4.70
2023-01-22T00:10:06.539Z,4.61
2023-01-22T00:15:08.470Z,4.76
2023-01-22T00:20:11.476Z,4.54
2023-01-22T00:25:13.011Z,4.70
2023-01-22T00:30:14.593Z,4.58
2023-01-22T00:35:16.254Z,4.71
2023-01-22T00:40:20.656Z,4.57
2023-01-22T00:45:22.356Z,4.48
2023-01-22T00:50:23.871Z,4.89
2023-01-22T00:55:25.399Z,4.88
2023-01-22T01:00:27.002Z,4.87
2023-01-22T01:05:28.597Z,4.90
2023-01-22T01:10:30.107Z,5.12
2023-01-22T01:15:31.632Z,5.19
2023-01-22T01:20:33.169Z,5.41
2023-01-22T01:25:34.681Z,5.39
2023-01-22T01:30:36.293Z,5.32
2023-01-22T01:35:38.139Z,5.34
2023-01-22T01:40:43.871Z,5.28
2023-01-22T01:45:45.499Z,5.53
2023-01-22T01:51:09.025Z,5.49
2023-01-22T01:56:20.428Z,5.56
2023-01-22T02:01:23.151Z,5.25
2023-01-22T02:06:26.438Z,4.79
2023-01-22T02:11:30.383Z,4.85
2023-01-22T02:16:32.102Z,5.14
2023-01-22T02:21:38.139Z,5.03
2023-01-22T02:26:40.974Z,4.90
2023-01-22T02:31:43.455Z,4.92
2023-01-22T02:36:45.019Z,4.93
2023-01-22T02:41:46.788Z,5.05
2023-01-22T02:46:50.008Z,4.97
2023-01-22T02:51:51.652Z,4.86
2023-01-22T02:56:54.232Z,4.93
2023-01-22T03:01:55.850Z,4.74
2023-01-22T03:06:57.409Z,4.79
2023-01-22T03:12:02.272Z,4.88
2023-01-22T03:17:09.142Z,4.93
2023-01-22T03:22:10.765Z,4.94
2023-01-22T03:27:12.262Z,4.84
2023-01-22T03:32:14.636Z,4.83
2023-01-22T03:37:16.350Z,4.92
2023-01-22T03:42:20.731Z,4.84
2023-01-22T03:47:22.406Z,4.80
2023-01-22T03:52:24.339Z,4.85
2023-01-22T03:57:25.858Z,4.89
2023-01-22T04:02:28.562Z,4.90
2023-01-22T04:07:43.977Z,5.03
2023-01-22T04:12:46.852Z,5.01
2023-01-22T04:17:51.484Z,4.84
2023-01-22T04:23:13.233Z,4.70
2023-01-22T04:28:16.443Z,4.66
2023-01-22T04:33:19.308Z,4.82
2023-01-22T04:38:35.524Z,4.86
2023-01-22T04:43:38.132Z,4.88
2023-01-22T04:48:39.682Z,4.84
2023-01-22T04:53:41.411Z,4.87
2023-01-22T04:58:43.907Z,4.91
2023-01-22T05:03:45.595Z,4.93
2023-01-22T05:08:47.258Z,5.11
2023-01-22T05:13:48.976Z,5.01
2023-01-22T05:18:51.532Z,5.22
2023-01-22T05:23:53.097Z,5.26
2023-01-22T05:28:54.719Z,5.18
2023-01-22T05:34:11.313Z,5.01
2023-01-22T05:39:13.325Z,4.81
2023-01-22T05:44:15.877Z,4.98
2023-01-22T05:49:22.923Z,5.02
2023-01-22T05:54:26.465Z,5.09
2023-01-22T05:59:29.505Z,5.04
2023-01-22T06:04:35.723Z,5.00
2023-01-22T06:09:43.965Z,4.98
2023-01-22T06:14:45.710Z,4.98
2023-01-22T06:19:47.683Z,5.01
2023-01-22T06:24:52.574Z,5.13
2023-01-22T06:29:56.946Z,4.91
2023-01-22T06:34:58.476Z,5.05
2023-01-22T06:40:00.066Z,5.03
2023-01-22T06:45:11.908Z,5.29
2023-01-22T06:50:19.608Z,5.32
2023-01-22T06:55:21.161Z,5.36
2023-01-22T07:00:23.117Z,5.35
2023-01-22T07:05:24.856Z,5.40
2023-01-22T07:10:28.642Z,5.46
2023-01-22T07:15:30.231Z,5.37
2023-01-22T07:20:31.708Z,5.40
2023-01-22T07:25:33.185Z,5.49
2023-01-22T07:30:34.874Z,5.42
2023-01-22T07:35:36.590Z,5.39
2023-01-22T07:40:38.115Z,5.35
2023-01-22T07:45:39.629Z,5.47
2023-01-22T07:50:41.274Z,5.46
2023-01-22T07:55:42.787Z,5.28
2023-01-22T08:00:44.414Z,5.44
2023-01-22T08:05:46.209Z,5.40
2023-01-22T08:10:47.714Z,5.61
2023-01-22T08:15:49.273Z,5.91
2023-01-22T08:20:50.895Z,6.08
2023-01-22T08:25:52.464Z,6.14
2023-01-22T08:31:02.109Z,6.19
2023-01-22T08:36:03.845Z,6.29
2023-01-22T08:41:05.357Z,6.33
2023-01-22T08:46:07.037Z,6.41
2023-01-22T08:51:08.847Z,6.29
2023-01-22T08:56:10.697Z,6.24
2023-01-22T09:01:16.731Z,6.23
2023-01-22T09:06:18.334Z,5.79
2023-01-22T09:11:19.867Z,5.97
2023-01-22T09:16:21.619Z,6.02
2023-01-22T09:21:23.165Z,5.72
2023-01-22T09:26:24.647Z,6.06
2023-01-22T09:31:26.886Z,5.70
2023-01-22T09:36:28.982Z,6.24
2023-01-22T09:41:38.122Z,6.21
2023-01-22T09:47:01.258Z,6.37
2023-01-22T09:52:05.412Z,6.49
2023-01-22T09:57:19.897Z,6.67
2023-01-22T10:02:45.165Z,6.52
2023-01-22T10:07:52.906Z,6.71
2023-01-22T10:13:06.352Z,6.52
2023-01-22T10:18:21.875Z,6.39
2023-01-22T10:23:26.098Z,6.52
2023-01-22T10:28:28.195Z,6.86
2023-01-22T10:33:29.767Z,7.00
2023-01-22T10:38:31.552Z,6.92
2023-01-22T10:43:35.652Z,6.92
2023-01-22T10:48:37.129Z,6.84
2023-01-22T10:53:45.615Z,6.93
2023-01-22T10:58:47.821Z,7.02
2023-01-22T11:03:49.506Z,7.07
2023-01-22T11:09:05.056Z,7.02
2023-01-22T11:14:14.016Z,7.16
2023-01-22T11:19:21.658Z,7.19
2023-01-22T11:24:39.581Z,7.12
2023-01-22T11:30:10.490Z,7.14
2023-01-22T11:35:20.885Z,7.17
2023-01-22T11:40:35.698Z,7.29
2023-01-22T11:46:02.160Z,7.38
2023-01-22T11:51:14.357Z,7.23
2023-01-22T11:56:40.821Z,7.30
2023-01-22T12:02:12.295Z,7.27
2023-01-22T12:07:19.840Z,7.16
2023-01-22T12:12:31.162Z,6.80
2023-01-22T12:17:51.115Z,7.07
2023-01-22T12:23:34.361Z,6.97
2023-01-22T12:28:44.736Z,6.88
2023-01-22T12:33:47.505Z,6.74
2023-01-22T12:39:00.782Z,6.68
2023-01-22T12:44:10.685Z,6.68
2023-01-22T12:49:13.936Z,6.47
2023-01-22T12:54:27.498Z,6.09
2023-01-22T12:59:34.744Z,6.23
2023-01-22T13:04:36.397Z,6.58
2023-01-22T13:09:37.905Z,6.53
2023-01-22T13:14:41.326Z,6.68
2023-01-22T13:19:44.309Z,6.69
2023-01-22T13:25:04.169Z,6.93
2023-01-22T13:30:13.059Z,6.89
2023-01-22T13:35:17.774Z,6.95
2023-01-22T13:40:26.790Z,6.92
2023-01-22T13:45:30.735Z,6.95
2023-01-22T13:50:32.797Z,6.94
2023-01-22T13:55:34.796Z,6.78
2023-01-22T14:00:36.922Z,7.10
2023-01-22T14:05:41.057Z,7.07
2023-01-22T14:10:42.539Z,7.08
2023-01-22T14:15:54.871Z,6.82
2023-01-22T14:20:56.376Z,6.30
2023-01-22T14:26:01.112Z,6.28
2023-01-22T14:31:03.393Z,6.38
2023-01-22T14:36:05.275Z,6.66
2023-01-22T14:41:07.211Z,6.66
2023-01-22T14:46:09.002Z,6.66
2023-01-22T14:51:11.640Z,6.67
2023-01-22T14:56:13.117Z,6.97
2023-01-22T15:01:17.760Z,6.71
2023-01-22T15:06:19.311Z,7.14
2023-01-22T15:11:20.828Z,7.00
2023-01-22T15:16:22.325Z,6.82
2023-01-22T15:21:23.967Z,7.08
2023-01-22T15:26:28.697Z,6.68
2023-01-22T15:31:30.987Z,6.67
2023-01-22T15:36:34.526Z,6.92
2023-01-22T15:41:36.974Z,7.26
2023-01-22T15:46:40.581Z,6.70
2023-01-22T15:51:42.064Z,6.50
2023-01-22T15:56:43.657Z,6.82
2023-01-22T16:01:45.265Z,6.74
2023-01-22T16:06:46.848Z,6.37
2023-01-22T16:11:48.289Z,6.22
2023-01-22T16:16:49.765Z,6.24
2023-01-22T16:21:53.249Z,6.18
2023-01-22T16:26:54.815Z,6.39
2023-01-22T16:31:56.513Z,6.16
2023-01-22T16:36:58.010Z,6.44
2023-01-22T16:41:59.489Z,6.16
2023-01-22T16:47:00.966Z,6.49
2023-01-22T16:52:20.715Z,6.54
2023-01-22T16:57:23.191Z,6.23
2023-01-22T17:02:24.892Z,6.44
2023-01-22T17:07:33.720Z,6.75
2023-01-22T17:12:35.626Z,6.21
2023-01-22T17:17:37.168Z,6.07
2023-01-22T17:22:38.748Z,6.18
2023-01-22T17:27:42.841Z,5.88
2023-01-22T17:32:45.411Z,6.33
2023-01-22T17:37:47.674Z,5.87
2023-01-22T17:42:49.134Z,5.74
2023-01-22T17:47:50.614Z,5.89
2023-01-22T17:52:52.149Z,6.35
2023-01-22T17:57:54.615Z,5.95
2023-01-22T18:02:56.236Z,5.87
2023-01-22T18:07:57.730Z,6.11
2023-01-22T18:12:59.225Z,6.54
2023-01-22T18:18:00.761Z,6.31
2023-01-22T18:23:02.311Z,6.00
2023-01-22T18:28:03.799Z,5.86
2023-01-22T18:33:05.314Z,6.01
2023-01-22T18:38:06.813Z,5.99
2023-01-22T18:43:08.404Z,5.92
2023-01-22T18:48:14.954Z,5.83
2023-01-22T18:53:16.399Z,5.93
2023-01-22T18:58:18.012Z,6.09
2023-01-22T19:03:21.926Z,6.18
2023-01-22T19:08:23.385Z,5.98
2023-01-22T19:13:24.927Z,5.82
2023-01-22T19:18:28.342Z,5.92
2023-01-22T19:23:31.298Z,5.71
2023-01-22T19:28:32.773Z,5.69
2023-01-22T19:33:34.264Z,6.09
2023-01-22T19:38:35.787Z,5.75
2023-01-22T19:43:37.690Z,5.72
2023-01-22T19:48:40.040Z,5.81
2023-01-22T19:53:41.885Z,5.75
2023-01-22T19:58:43.686Z,6.25
2023-01-22T20:03:45.282Z,6.26
2023-01-22T20:08:46.937Z,6.02
2023-01-22T20:13:48.425Z,6.17
2023-01-22T20:18:50.857Z,6.10
2023-01-22T20:23:52.511Z,6.14
2023-01-22T20:28:54.193Z,6.16
2023-01-22T20:33:56.176Z,5.68
2023-01-22T20:38:57.937Z,5.67
2023-01-22T20:43:59.577Z,5.70
2023-01-22T20:49:01.071Z,5.53
2023-01-22T20:54:03.098Z,5.56
2023-01-22T20:59:07.071Z,5.46
2023-01-22T21:04:11.185Z,5.78
2023-01-22T21:09:13.488Z,5.82
2023-01-22T21:14:15.410Z,5.65
2023-01-22T21:19:21.943Z,5.20
2023-01-22T21:24:24.441Z,5.69
2023-01-22T21:29:25.947Z,5.48
2023-01-22T21:34:27.556Z,5.58
2023-01-22T21:39:30.093Z,5.94
2023-01-22T21:44:31.868Z,5.90
2023-01-22T21:49:33.945Z,5.96
2023-01-22T21:54:38.085Z,5.94
2023-01-22T21:59:39.687Z,6.04
2023-01-22T22:04:41.885Z,6.01
2023-01-22T22:09:43.429Z,5.94
2023-01-22T22:14:44.901Z,5.93
2023-01-22T22:19:46.341Z,5.80
2023-01-22T22:24:47.824Z,5.31
2023-01-22T22:29:52.859Z,5.28
2023-01-22T22:34:54.310Z,5.25
2023-01-22T22:39:55.755Z,5.46
2023-01-22T22:44:57.249Z,5.56
2023-01-22T22:49:58.698Z,5.52
2023-01-22T22:55:00.300Z,5.51
2023-01-22T23:00:01.813Z,5.40
2023-01-22T23:05:03.874Z,5.56
2023-01-22T23:10:05.818Z,5.59
2023-01-22T23:15:07.732Z,5.61
2023-01-22T23:20:10.109Z,5.55
2023-01-22T23:25:11.826Z,5.62
2023-01-22T23:30:13.354Z,5.48
2023-01-22T23:35:14.898Z,5.76
2023-01-22T23:40:16.584Z,5.70
2023-01-22T23:45:18.056Z,5.67
2023-01-22T23:50:19.671Z,5.72
2023-01-22T23:55:21.380Z,5.70
